Time;durP1;ratioP1;P1;durP2;ratioP2;P2;SDS_P1;SDS_P2;PMS_P1;PMS_P2;Temp;Humidity;BMP_temperature;BMP_pressure;BME280_temperature;BME280_humidity;BME280_pressure;Samples;Min_cycle;Max_cycle;Signal;HPM_P1;HPM_P2
2022/02/18 00:02:13;;;;;;;7.10;4.07;;;10.50;99.90;;;;;;5051895;28;20536;-68
2022/02/18 00:04:39;;;;;;;5.40;3.87;;;10.50;99.90;;;;;;5052170;28;20665;-67
2022/02/18 00:07:05;;;;;;;7.07;4.33;;;10.60;99.90;;;;;;5050203;28;20273;-68
2022/02/18 00:09:30;;;;;;;4.53;3.63;;;10.60;99.90;;;;;;5049946;28;20622;-67
2022/02/18 00:11:56;;;;;;;8.63;4.77;;;10.60;99.90;;;;;;5052797;28;20211;-67
2022/02/18 00:14:22;;;;;;;7.43;4.60;;;10.60;99.90;;;;;;5051485;28;20181;-68
2022/02/18 00:16:47;;;;;;;5.60;4.00;;;10.60;99.90;;;;;;5050461;28;20520;-67
2022/02/18 00:19:13;;;;;;;5.23;4.33;;;10.50;99.90;;;;;;5051551;28;20181;-68
2022/02/18 00:21:39;;;;;;;7.27;4.83;;;10.60;99.90;;;;;;5050520;28;20231;-71
2022/02/18 00:24:05;;;;;;;5.50;4.20;;;10.60;99.90;;;;;;5051787;28;20202;-67
2022/02/18 00:26:31;;;;;;;11.03;5.13;;;10.50;99.90;;;;;;5051082;28;20213;-67
2022/02/18 00:28:57;;;;;;;11.27;4.93;;;10.50;99.90;;;;;;5051322;28;20413;-71
2022/02/18 00:31:23;;;;;;;13.17;6.00;;;10.50;99.90;;;;;;5049056;28;20640;-67
2022/02/18 00:33:48;;;;;;;8.50;5.03;;;10.50;99.90;;;;;;5052154;28;20509;-67
2022/02/18 00:36:14;;;;;;;7.87;5.90;;;10.40;99.90;;;;;;5051486;28;20416;-68
2022/02/18 00:38:41;;;;;;;11.27;5.87;;;10.40;99.90;;;;;;5049980;28;20178;-68
2022/02/18 00:41:08;;;;;;;9.53;5.40;;;10.50;99.90;;;;;;5051643;28;20982;-67
2022/02/18 00:43:35;;;;;;;12.00;5.90;;;10.50;99.90;;;;;;5051296;28;20459;-71
2022/02/18 00:46:01;;;;;;;12.20;5.50;;;10.40;99.90;;;;;;5052452;28;20422;-67
2022/02/18 00:48:27;;;;;;;7.23;5.80;;;10.40;99.90;;;;;;5053055;28;20412;-68
2022/02/18 00:50:52;;;;;;;13.80;6.37;;;10.50;99.90;;;;;;5051492;28;20780;-67
2022/02/18 00:53:18;;;;;;;10.03;5.90;;;10.50;99.90;;;;;;5051381;28;20177;-68
2022/02/18 00:55:44;;;;;;;9.30;5.60;;;10.50;99.90;;;;;;5051785;28;20174;-67
2022/02/18 00:58:10;;;;;;;10.00;5.80;;;10.60;99.90;;;;;;5051577;28;20960;-78
2022/02/18 01:00:36;;;;;;;11.07;5.83;;;10.50;99.90;;;;;;5051643;28;20412;-67
2022/02/18 01:03:01;;;;;;;7.07;4.83;;;10.50;99.90;;;;;;5051473;28;20214;-68
2022/02/18 01:05:27;;;;;;;16.50;5.80;;;10.50;99.90;;;;;;5050468;28;20215;-68
2022/02/18 01:07:53;;;;;;;7.20;4.63;;;10.40;99.90;;;;;;5051194;28;20185;-68
2022/02/18 01:10:20;;;;;;;8.70;5.30;;;10.60;99.90;;;;;;5032719;28;20431;-68
2022/02/18 01:12:46;;;;;;;12.07;5.07;;;10.50;99.90;;;;;;5050396;28;20179;-68
2022/02/18 01:15:12;;;;;;;10.03;4.20;;;10.50;99.90;;;;;;5049634;28;20419;-80
2022/02/18 01:17:38;;;;;;;11.50;5.00;;;10.40;99.90;;;;;;5050102;28;20935;-68
2022/02/18 01:20:04;;;;;;;9.30;4.40;;;10.50;99.90;;;;;;5049401;28;20227;-67
2022/02/18 01:22:30;;;;;;;11.47;5.80;;;10.50;99.90;;;;;;5049594;28;20481;-68
2022/02/18 01:24:56;;;;;;;9.80;5.10;;;10.50;99.90;;;;;;5050208;28;20435;-68
2022/02/18 01:27:22;;;;;;;7.37;4.43;;;10.50;99.90;;;;;;5048544;28;20778;-69
2022/02/18 01:29:47;;;;;;;8.53;4.90;;;10.40;99.90;;;;;;5053932;28;20188;-73
2022/02/18 01:32:13;;;;;;;17.17;4.77;;;10.40;99.90;;;;;;5053734;28;20617;-79
2022/02/18 01:34:40;;;;;;;10.83;4.03;;;10.40;99.90;;;;;;5054106;28;20186;-69
2022/02/18 01:37:07;;;;;;;9.60;4.63;;;10.40;99.90;;;;;;5054122;28;20767;-68
2022/02/18 01:39:33;;;;;;;9.83;4.27;;;10.40;99.90;;;;;;5053181;28;20502;-68
2022/02/18 01:41:59;;;;;;;8.53;3.67;;;10.40;99.90;;;;;;5054108;28;20761;-69
2022/02/18 01:44:47;;;;;;;5.00;4.03;;;10.40;99.90;;;;;;5051901;28;20948;-68
2022/02/18 01:47:15;;;;;;;9.07;3.87;;;10.40;99.90;;;;;;5051281;28;20454;-80
2022/02/18 01:49:45;;;;;;;9.73;4.20;;;10.50;99.90;;;;;;5053059;28;20431;-70
2022/02/18 01:52:12;;;;;;;10.93;3.87;;;10.40;99.90;;;;;;5053625;28;20433;-81
2022/02/18 01:54:38;;;;;;;12.30;3.70;;;10.40;99.90;;;;;;5054633;28;20507;-68
2022/02/18 01:57:04;;;;;;;10.70;4.10;;;10.40;99.90;;;;;;5055052;28;20413;-67
2022/02/18 01:59:30;;;;;;;8.97;3.70;;;10.40;99.90;;;;;;5053895;28;21050;-68
2022/02/18 02:01:59;;;;;;;7.63;3.93;;;10.50;99.90;;;;;;5053902;28;20180;-68
2022/02/18 02:04:29;;;;;;;10.53;3.53;;;10.50;99.90;;;;;;5054209;28;20229;-68
2022/02/18 02:06:58;;;;;;;10.17;4.07;;;10.50;99.90;;;;;;5055031;28;20418;-68
2022/02/18 02:09:25;;;;;;;3.73;3.30;;;10.50;99.90;;;;;;5054221;28;20409;-68
2022/02/18 02:11:51;;;;;;;10.17;3.47;;;10.60;99.90;;;;;;5052912;28;20439;-68
2022/02/18 02:14:17;;;;;;;10.13;4.37;;;10.50;99.90;;;;;;5052677;28;20454;-68
2022/02/18 02:16:43;;;;;;;9.90;4.20;;;10.60;99.90;;;;;;5053551;28;20411;-68
2022/02/18 02:19:08;;;;;;;10.07;3.80;;;10.60;99.90;;;;;;5053252;28;20772;-68
2022/02/18 02:21:35;;;;;;;9.67;4.50;;;10.60;99.90;;;;;;5053637;28;20225;-68
2022/02/18 02:24:00;;;;;;;12.60;4.03;;;10.60;99.90;;;;;;5054592;28;20198;-68
2022/02/18 02:26:26;;;;;;;9.77;4.77;;;10.60;99.90;;;;;;5052447;28;20498;-68
2022/02/18 02:28:52;;;;;;;14.67;3.87;;;10.60;99.90;;;;;;5053729;28;20504;-68
2022/02/18 02:31:22;;;;;;;7.37;4.13;;;10.60;99.90;;;;;;5053428;28;20175;-68
2022/02/18 02:33:47;;;;;;;8.37;3.43;;;10.50;99.90;;;;;;5054694;28;20356;-68
2022/02/18 02:36:13;;;;;;;12.47;3.60;;;10.50;99.90;;;;;;5053845;28;20437;-81
2022/02/18 02:38:39;;;;;;;9.37;3.80;;;10.50;99.90;;;;;;5053083;28;20509;-68
2022/02/18 02:41:04;;;;;;;13.07;4.20;;;10.50;99.90;;;;;;5054450;28;20175;-68
2022/02/18 02:43:30;;;;;;;5.10;3.80;;;10.50;99.90;;;;;;5053322;28;20653;-68
2022/02/18 02:45:56;;;;;;;13.10;4.30;;;10.60;99.90;;;;;;5054686;28;20184;-68
2022/02/18 02:48:22;;;;;;;6.03;4.00;;;10.60;99.90;;;;;;5052139;28;20201;-68
2022/02/18 02:50:47;;;;;;;7.47;4.10;;;10.60;99.90;;;;;;5054255;28;20187;-68
2022/02/18 02:53:13;;;;;;;14.43;4.33;;;10.70;99.90;;;;;;5053760;28;20184;-79
2022/02/18 02:55:39;;;;;;;12.17;5.00;;;10.70;99.90;;;;;;5053736;28;20267;-68
2022/02/18 02:58:05;;;;;;;7.53;3.80;;;10.70;99.90;;;;;;5054156;28;20170;-67
2022/02/18 03:00:30;;;;;;;9.37;3.63;;;10.70;99.90;;;;;;5052124;28;20191;-68
2022/02/18 03:02:56;;;;;;;8.90;3.40;;;10.70;99.90;;;;;;5053443;28;20679;-68
2022/02/18 03:05:22;;;;;;;17.80;4.00;;;10.80;99.90;;;;;;5053491;28;20217;-68
2022/02/18 03:07:47;;;;;;;7.57;4.10;;;10.70;99.90;;;;;;5054235;28;20185;-68
2022/02/18 03:10:13;;;;;;;11.27;4.70;;;10.80;99.90;;;;;;5053773;28;20509;-74
2022/02/18 03:12:39;;;;;;;9.70;4.30;;;10.80;99.90;;;;;;5053366;28;20183;-68
2022/02/18 03:15:06;;;;;;;9.33;3.30;;;10.80;99.90;;;;;;5054039;28;20493;-68
2022/02/18 03:17:32;;;;;;;14.10;3.63;;;10.80;99.90;;;;;;5053314;28;20676;-68
2022/02/18 03:19:57;;;;;;;9.10;3.90;;;10.90;99.90;;;;;;5053405;28;20458;-68
2022/02/18 03:22:23;;;;;;;17.80;4.13;;;10.80;99.90;;;;;;5068505;28;20855;-68
2022/02/18 03:24:49;;;;;;;11.50;4.40;;;10.90;99.90;;;;;;5052486;28;20192;-68
2022/02/18 03:27:14;;;;;;;10.73;4.33;;;10.90;99.90;;;;;;5035593;28;20208;-77
2022/02/18 03:29:40;;;;;;;8.30;3.57;;;10.90;99.90;;;;;;5052846;28;20184;-67
2022/02/18 03:32:06;;;;;;;7.00;3.20;;;10.90;99.90;;;;;;5053130;28;20182;-67
2022/02/18 03:34:34;;;;;;;8.00;4.10;;;10.80;99.90;;;;;;5052927;28;20173;-67
2022/02/18 03:37:00;;;;;;;7.33;3.87;;;10.90;99.90;;;;;;5052996;28;20423;-67
2022/02/18 03:39:25;;;;;;;9.30;4.00;;;10.90;99.90;;;;;;5052572;28;20846;-66
2022/02/18 03:41:51;;;;;;;10.00;4.73;;;10.90;99.90;;;;;;5053148;28;20173;-66
2022/02/18 03:44:18;;;;;;;10.17;5.00;;;10.80;99.90;;;;;;5053367;28;20208;-75
2022/02/18 03:46:44;;;;;;;12.00;5.00;;;10.70;99.90;;;;;;5053387;28;20514;-67
2022/02/18 03:49:10;;;;;;;12.60;4.80;;;10.70;99.90;;;;;;5051699;28;20502;-66
2022/02/18 03:51:35;;;;;;;8.40;3.90;;;10.60;99.90;;;;;;5052137;28;20195;-66
2022/02/18 03:54:01;;;;;;;14.00;5.00;;;10.70;99.90;;;;;;5053505;28;20188;-65
2022/02/18 03:56:27;;;;;;;10.37;4.60;;;10.60;99.90;;;;;;5050433;28;20189;-66
2022/02/18 03:58:52;;;;;;;13.80;5.43;;;10.60;99.90;;;;;;5052515;28;20174;-66
2022/02/18 04:01:18;;;;;;;11.27;4.77;;;10.60;99.90;;;;;;5052315;28;20187;-74
2022/02/18 04:03:44;;;;;;;11.57;5.57;;;10.50;99.90;;;;;;5050826;28;20254;-67
2022/02/18 04:06:11;;;;;;;12.30;4.20;;;10.40;99.90;;;;;;5052574;28;20279;-66
2022/02/18 04:08:36;;;;;;;16.73;7.00;;;10.10;99.90;;;;;;5051832;28;20477;-66
2022/02/18 04:11:02;;;;;;;10.83;5.10;;;10.50;99.90;;;;;;5052696;28;20415;-67
2022/02/18 04:13:28;;;;;;;13.83;4.50;;;10.40;99.90;;;;;;5051733;28;20204;-66
2022/02/18 04:15:53;;;;;;;10.30;4.30;;;10.40;99.90;;;;;;5051487;28;20626;-66
2022/02/18 04:18:19;;;;;;;12.30;4.53;;;10.50;99.90;;;;;;5051931;28;20260;-76
2022/02/18 04:20:45;;;;;;;9.77;3.97;;;10.40;99.90;;;;;;5050414;28;20770;-66
2022/02/18 04:23:11;;;;;;;11.63;3.90;;;10.30;99.90;;;;;;5052356;28;20669;-66
2022/02/18 04:25:36;;;;;;;13.10;4.40;;;10.40;99.90;;;;;;5051113;28;20187;-67
2022/02/18 04:28:07;;;;;;;8.57;4.10;;;10.50;99.90;;;;;;5050904;28;20428;-67
2022/02/18 04:30:34;;;;;;;9.50;4.57;;;10.50;99.90;;;;;;5051405;28;20169;-67
2022/02/18 04:33:00;;;;;;;12.53;4.13;;;10.60;99.90;;;;;;5050919;28;20440;-67
2022/02/18 04:35:26;;;;;;;8.60;5.50;;;10.70;99.90;;;;;;5050397;28;20428;-68
2022/02/18 04:37:52;;;;;;;10.40;4.07;;;10.70;99.90;;;;;;5050143;28;20426;-67
2022/02/18 04:40:19;;;;;;;11.10;5.07;;;10.70;99.90;;;;;;5050932;28;20419;-67
2022/02/18 04:42:46;;;;;;;14.10;4.13;;;10.70;99.90;;;;;;5049927;28;20467;-67
2022/02/18 04:45:13;;;;;;;12.80;4.40;;;10.60;99.90;;;;;;5049311;28;20441;-67
2022/02/18 04:47:39;;;;;;;15.33;4.23;;;10.70;99.90;;;;;;5050947;28;21390;-66
2022/02/18 04:50:06;;;;;;;11.70;5.30;;;10.70;99.90;;;;;;5050425;28;20440;-67
2022/02/18 04:52:33;;;;;;;9.07;5.20;;;10.70;99.90;;;;;;5051647;28;20432;-66
2022/02/18 04:55:00;;;;;;;5.20;3.90;;;10.60;99.90;;;;;;5051637;28;20431;-66
2022/02/18 04:57:26;;;;;;;7.27;3.87;;;10.70;99.90;;;;;;5049953;28;20459;-67
2022/02/18 04:59:52;;;;;;;11.40;5.43;;;10.70;99.90;;;;;;5051779;28;20438;-66
2022/02/18 05:02:17;;;;;;;10.93;5.00;;;10.70;99.90;;;;;;5052404;28;20597;-66
2022/02/18 05:04:43;;;;;;;9.07;5.00;;;10.70;99.90;;;;;;5054943;28;20236;-66
2022/02/18 05:07:09;;;;;;;20.37;6.80;;;10.80;99.90;;;;;;5055479;28;20175;-67
2022/02/18 05:09:35;;;;;;;9.60;3.83;;;10.70;99.90;;;;;;5054377;28;20436;-67
2022/02/18 05:12:01;;;;;;;16.30;4.03;;;10.70;99.90;;;;;;5056591;28;20177;-67
2022/02/18 05:14:27;;;;;;;9.67;4.13;;;10.80;99.90;;;;;;5054557;28;20220;-67
2022/02/18 05:16:52;;;;;;;10.73;5.40;;;10.70;99.90;;;;;;5054490;28;20518;-66
2022/02/18 05:19:18;;;;;;;9.70;4.03;;;10.80;99.90;;;;;;5055870;28;20684;-66
2022/02/18 05:21:44;;;;;;;10.83;3.70;;;10.90;99.90;;;;;;5055152;28;20406;-67
2022/02/18 05:24:09;;;;;;;8.30;5.27;;;10.90;99.90;;;;;;5071274;28;20670;-67
2022/02/18 05:26:36;;;;;;;15.43;4.77;;;10.80;99.80;;;;;;5055174;28;20207;-66
2022/02/18 05:29:04;;;;;;;10.03;5.23;;;10.70;99.60;;;;;;5055588;28;20172;-66
2022/02/18 05:31:30;;;;;;;8.57;4.50;;;10.60;99.90;;;;;;5054452;28;20442;-67
2022/02/18 05:33:56;;;;;;;5.93;3.43;;;10.60;99.90;;;;;;5055697;28;20421;-66
2022/02/18 05:36:22;;;;;;;8.57;3.30;;;10.70;99.90;;;;;;5055431;28;20495;-75
2022/02/18 05:38:47;;;;;;;6.30;3.17;;;10.50;99.80;;;;;;5054937;28;20506;-67
2022/02/18 05:41:13;;;;;;;8.73;3.70;;;10.50;99.90;;;;;;5054321;28;20646;-66
2022/02/18 05:43:39;;;;;;;4.27;3.60;;;10.30;99.90;;;;;;5054087;28;20226;-66
2022/02/18 05:46:05;;;;;;;7.37;2.60;;;10.30;99.90;;;;;;5054979;28;20436;-67
2022/02/18 05:48:31;;;;;;;6.63;4.17;;;10.30;99.90;;;;;;5058963;28;20537;-67
2022/02/18 05:50:58;;;;;;;7.17;4.07;;;10.20;99.90;;;;;;5056153;28;20174;-71
2022/02/18 05:53:23;;;;;;;5.93;3.00;;;10.20;99.90;;;;;;5055036;28;20456;-68
2022/02/18 05:55:49;;;;;;;7.93;4.43;;;10.30;99.90;;;;;;5054240;28;20493;-67
2022/02/18 05:58:15;;;;;;;5.73;3.50;;;10.30;99.70;;;;;;5057385;28;20216;-67
2022/02/18 06:00:40;;;;;;;6.63;5.23;;;10.30;99.60;;;;;;5054494;28;20177;-67
2022/02/18 06:03:06;;;;;;;8.67;4.20;;;10.20;99.90;;;;;;5053995;28;20570;-68
2022/02/18 06:05:32;;;;;;;6.80;3.23;;;10.10;99.90;;;;;;5053986;28;20235;-67
2022/02/18 06:07:58;;;;;;;8.07;4.13;;;9.80;99.90;;;;;;5054902;28;20178;-67
2022/02/18 06:10:23;;;;;;;8.37;3.37;;;9.90;99.90;;;;;;5054530;28;20179;-79
2022/02/18 06:12:50;;;;;;;4.63;3.33;;;9.90;99.90;;;;;;5055312;28;20178;-68
2022/02/18 06:15:16;;;;;;;8.10;2.90;;;10.00;99.90;;;;;;5055303;28;20409;-67
2022/02/18 06:17:42;;;;;;;7.20;4.07;;;9.90;99.90;;;;;;5054627;28;20911;-68
2022/02/18 06:20:08;;;;;;;5.70;3.60;;;9.90;99.90;;;;;;5054621;28;20777;-68
2022/02/18 06:22:36;;;;;;;11.03;3.77;;;10.00;99.90;;;;;;5053302;28;20305;-67
2022/02/18 06:25:09;;;;;;;6.47;3.97;;;9.90;99.90;;;;;;5054978;28;20429;-67
2022/02/18 06:27:35;;;;;;;10.10;4.80;;;9.90;99.90;;;;;;5054561;28;20408;-66
2022/02/18 06:30:01;;;;;;;10.73;4.20;;;10.00;99.90;;;;;;5054486;28;20417;-70
2022/02/18 06:32:27;;;;;;;10.30;3.60;;;10.10;99.90;;;;;;5058895;28;20170;-68
2022/02/18 06:34:53;;;;;;;6.87;3.87;;;10.10;99.90;;;;;;5061337;28;20424;-68
2022/02/18 06:37:20;;;;;;;5.67;3.30;;;10.10;99.90;;;;;;5054165;28;20569;-68
2022/02/18 06:39:46;;;;;;;10.60;5.43;;;10.10;99.90;;;;;;5053412;28;20437;-67
2022/02/18 06:42:12;;;;;;;12.07;3.90;;;10.10;99.90;;;;;;5054468;28;20422;-67
2022/02/18 06:44:37;;;;;;;9.27;3.80;;;10.10;99.90;;;;;;5054111;28;20866;-67
2022/02/18 06:47:04;;;;;;;10.30;2.97;;;10.00;99.90;;;;;;5056568;28;20426;-69
2022/02/18 06:49:29;;;;;;;13.60;7.20;;;10.00;99.90;;;;;;5053753;28;20187;-80
2022/02/18 06:51:55;;;;;;;11.90;5.70;;;10.10;99.90;;;;;;5052403;28;20427;-69
2022/02/18 06:54:31;;;;;;;11.30;3.47;;;10.10;99.90;;;;;;5069030;28;20192;-68
2022/02/18 06:57:00;;;;;;;11.97;3.67;;;10.20;99.90;;;;;;5063300;28;20409;-68
2022/02/18 06:59:26;;;;;;;12.20;4.93;;;10.00;99.90;;;;;;5066090;28;20415;-79
2022/02/18 07:01:54;;;;;;;8.00;4.13;;;9.90;99.90;;;;;;5053321;28;20439;-68
2022/02/18 07:04:21;;;;;;;12.27;4.07;;;9.60;99.90;;;;;;5057598;28;20461;-68
2022/02/18 07:06:47;;;;;;;6.33;3.80;;;9.50;99.90;;;;;;5051989;28;20749;-68
2022/02/18 07:09:14;;;;;;;8.60;4.90;;;9.50;99.90;;;;;;5057572;28;20457;-68
2022/02/18 07:11:40;;;;;;;6.93;3.80;;;9.40;99.90;;;;;;5073124;28;20178;-69
2022/02/18 07:14:11;;;;;;;6.10;2.90;;;9.30;99.90;;;;;;5072117;28;20522;-68
2022/02/18 07:16:41;;;;;;;8.80;3.27;;;9.30;99.90;;;;;;5067150;28;20417;-68
2022/02/18 07:19:12;;;;;;;10.10;5.10;;;9.20;99.90;;;;;;5054039;28;20432;-68
2022/02/18 07:21:39;;;;;;;5.60;3.23;;;9.10;99.90;;;;;;5060215;28;20459;-68
2022/02/18 07:24:08;;;;;;;6.70;4.10;;;9.10;99.90;;;;;;5073402;28;20466;-68
2022/02/18 07:26:34;;;;;;;10.50;4.27;;;9.10;99.90;;;;;;5057682;28;20984;-68
2022/02/18 07:29:00;;;;;;;5.67;4.47;;;9.10;99.90;;;;;;5053517;28;20507;-68
2022/02/18 07:31:26;;;;;;;8.90;2.67;;;9.20;99.90;;;;;;5038261;28;20499;-71
2022/02/18 07:33:52;;;;;;;9.23;5.33;;;9.30;99.90;;;;;;5058193;28;20198;-68
2022/02/18 07:36:18;;;;;;;11.43;3.13;;;9.40;99.90;;;;;;5053377;28;20415;-67
2022/02/18 07:38:43;;;;;;;6.37;2.90;;;9.60;99.90;;;;;;5055975;28;20194;-69
2022/02/18 07:41:09;;;;;;;10.93;4.63;;;9.70;99.90;;;;;;5067909;28;20190;-68
2022/02/18 07:43:35;;;;;;;8.70;3.23;;;9.70;99.90;;;;;;5067736;28;20212;-68
2022/02/18 07:46:02;;;;;;;8.17;3.53;;;9.80;99.90;;;;;;5053375;28;20193;-68
2022/02/18 07:48:28;;;;;;;8.73;3.60;;;9.80;99.90;;;;;;5053268;28;20760;-68
2022/02/18 07:50:54;;;;;;;9.40;3.07;;;9.70;99.90;;;;;;5052584;28;20418;-68
2022/02/18 07:53:19;;;;;;;10.17;4.70;;;9.70;99.90;;;;;;5053261;28;20986;-68
2022/02/18 07:55:45;;;;;;;8.53;3.77;;;9.80;99.90;;;;;;5052905;28;20221;-68
2022/02/18 07:58:11;;;;;;;6.50;4.30;;;9.90;99.90;;;;;;5053045;28;20207;-68
2022/02/18 08:00:38;;;;;;;10.10;3.30;;;9.90;99.90;;;;;;5052080;28;20947;-69
2022/02/18 08:03:04;;;;;;;6.63;4.27;;;9.50;99.90;;;;;;5052646;28;20205;-68
2022/02/18 08:05:30;;;;;;;7.40;3.40;;;9.40;99.90;;;;;;5051233;28;20512;-73
2022/02/18 08:07:57;;;;;;;6.00;3.07;;;9.50;99.90;;;;;;5051570;28;20989;-67
2022/02/18 08:10:23;;;;;;;7.43;3.97;;;9.60;99.90;;;;;;5052522;28;20437;-67
2022/02/18 08:12:49;;;;;;;14.47;4.60;;;9.60;99.90;;;;;;5052402;28;20427;-68
2022/02/18 08:15:15;;;;;;;12.20;4.27;;;9.60;99.90;;;;;;5053063;28;20511;-68
2022/02/18 08:17:40;;;;;;;9.07;4.80;;;9.60;99.90;;;;;;5052726;28;20619;-67
2022/02/18 08:20:08;;;;;;;10.07;3.20;;;9.70;99.90;;;;;;5052911;28;20219;-67
2022/02/18 08:22:35;;;;;;;12.00;3.67;;;9.80;99.90;;;;;;5052242;28;20439;-68
2022/02/18 08:25:01;;;;;;;9.90;6.07;;;9.90;99.90;;;;;;5052000;28;20433;-68
2022/02/18 08:27:27;;;;;;;7.73;3.70;;;9.90;99.90;;;;;;5052495;28;20426;-67
2022/02/18 08:29:54;;;;;;;9.93;5.00;;;9.90;99.90;;;;;;5051855;28;20587;-67
2022/02/18 08:32:20;;;;;;;5.63;4.07;;;10.00;99.90;;;;;;5051683;28;20486;-68
2022/02/18 08:34:45;;;;;;;11.30;5.93;;;10.10;99.90;;;;;;5051121;28;20502;-68
2022/02/18 08:37:11;;;;;;;11.97;5.10;;;10.20;99.90;;;;;;5051247;28;20238;-68
2022/02/18 08:39:37;;;;;;;8.63;3.83;;;10.30;99.90;;;;;;5050796;28;20263;-69
2022/02/18 08:42:03;;;;;;;6.40;3.93;;;10.20;99.90;;;;;;5052336;28;20183;-67
2022/02/18 08:44:29;;;;;;;11.33;4.17;;;10.10;99.90;;;;;;5050337;28;20206;-67
2022/02/18 08:46:55;;;;;;;5.60;4.00;;;10.20;99.90;;;;;;5050669;28;20425;-67
2022/02/18 08:49:21;;;;;;;8.03;4.70;;;10.20;99.90;;;;;;5052169;28;20434;-67
2022/02/18 08:51:47;;;;;;;7.47;4.03;;;10.20;99.90;;;;;;5051259;28;20437;-68
2022/02/18 08:54:13;;;;;;;6.80;5.70;;;10.30;99.90;;;;;;5051712;28;20428;-68
2022/02/18 08:56:39;;;;;;;6.90;6.20;;;10.30;99.90;;;;;;5052022;28;20420;-71
2022/02/18 08:59:07;;;;;;;10.37;6.40;;;10.50;99.90;;;;;;5051979;28;20173;-70
2022/02/18 09:01:33;;;;;;;7.17;5.17;;;10.50;99.90;;;;;;5051720;28;20483;-70
2022/02/18 09:03:59;;;;;;;6.70;4.17;;;10.90;99.90;;;;;;5051618;28;20459;-70
2022/02/18 09:06:24;;;;;;;7.23;3.83;;;11.00;99.90;;;;;;5051269;28;20475;-70
2022/02/18 09:08:51;;;;;;;7.77;3.70;;;11.30;99.90;;;;;;5051245;28;20183;-70
2022/02/18 09:11:18;;;;;;;7.07;3.03;;;11.30;99.90;;;;;;5051706;28;20458;-70
2022/02/18 09:13:44;;;;;;;8.97;4.20;;;11.50;99.90;;;;;;5052027;28;20482;-70
2022/02/18 09:16:10;;;;;;;6.53;2.63;;;11.70;99.90;;;;;;5051547;28;20412;-70
2022/02/18 09:18:36;;;;;;;6.70;3.93;;;11.90;99.90;;;;;;5050913;28;20753;-71
2022/02/18 09:21:02;;;;;;;8.83;4.10;;;12.10;99.90;;;;;;5051139;28;20458;-70
2022/02/18 09:23:28;;;;;;;5.93;2.57;;;12.10;99.90;;;;;;5051634;28;20936;-70
2022/02/18 09:25:54;;;;;;;9.93;3.07;;;12.10;99.90;;;;;;5050717;28;20987;-70
2022/02/18 09:28:20;;;;;;;6.30;3.40;;;12.10;99.90;;;;;;5051200;28;20424;-70
2022/02/18 09:30:48;;;;;;;6.50;4.30;;;12.10;99.90;;;;;;5053378;28;20509;-75
2022/02/18 09:33:16;;;;;;;5.07;4.37;;;12.00;99.90;;;;;;5051375;28;20411;-70
2022/02/18 09:35:42;;;;;;;8.60;5.33;;;12.10;99.90;;;;;;5050315;28;20505;-76
2022/02/18 09:38:08;;;;;;;3.93;3.63;;;12.40;99.90;;;;;;5051113;28;20405;-71
2022/02/18 09:40:37;;;;;;;4.63;4.17;;;12.50;99.90;;;;;;5057430;28;20746;-71
2022/02/18 09:43:03;;;;;;;3.33;2.67;;;12.70;99.90;;;;;;5062711;28;20477;-72
2022/02/18 09:45:30;;;;;;;5.40;4.43;;;12.40;99.90;;;;;;5052178;28;20506;-71
2022/02/18 09:47:57;;;;;;;6.13;4.63;;;12.50;99.90;;;;;;5049836;28;20418;-71
2022/02/18 09:50:23;;;;;;;4.33;3.20;;;12.40;99.90;;;;;;5053558;28;20455;-69
2022/02/18 09:52:49;;;;;;;11.10;3.10;;;12.60;99.90;;;;;;5050989;28;20443;-67
2022/02/18 09:55:15;;;;;;;3.13;2.63;;;12.40;99.90;;;;;;5053538;28;20416;-69
2022/02/18 09:57:45;;;;;;;9.43;3.30;;;12.40;99.90;;;;;;5054301;28;20942;-67
2022/02/18 10:00:12;;;;;;;3.67;3.40;;;12.10;99.90;;;;;;5050500;28;20266;-68
2022/02/18 10:02:38;;;;;;;4.30;2.87;;;11.90;99.90;;;;;;5053259;28;20430;-66
2022/02/18 10:05:05;;;;;;;4.83;4.43;;;11.80;99.90;;;;;;5053809;28;20426;-69
2022/02/18 10:07:31;;;;;;;3.33;2.30;;;11.70;99.90;;;;;;5052009;28;20420;-68
2022/02/18 10:09:58;;;;;;;6.03;1.97;;;11.50;99.90;;;;;;5052941;28;20415;-67
2022/02/18 10:12:41;;;;;;;7.20;3.70;;;11.60;99.90;;;;;;5052730;28;20480;-67
2022/02/18 10:15:09;;;;;;;6.10;2.90;;;11.50;99.90;;;;;;5053575;28;20932;-67
2022/02/18 10:17:43;;;;;;;3.90;3.03;;;11.50;99.90;;;;;;5053874;28;20911;-76
2022/02/18 10:20:15;;;;;;;5.40;2.20;;;11.50;99.90;;;;;;5053884;28;20791;-67
2022/02/18 10:23:00;;;;;;;5.40;2.47;;;11.50;99.90;;;;;;5053478;28;20420;-70
2022/02/18 10:25:26;;;;;;;5.37;3.20;;;11.60;99.90;;;;;;5053263;28;20415;-67
2022/02/18 10:27:53;;;;;;;3.73;3.43;;;11.60;99.90;;;;;;5053078;28;20416;-67
2022/02/18 10:30:25;;;;;;;5.43;2.10;;;11.60;99.90;;;;;;5053510;28;20420;-67
2022/02/18 10:32:55;;;;;;;4.93;3.40;;;11.60;99.90;;;;;;5050586;28;20422;-67
2022/02/18 10:35:32;;;;;;;6.63;2.73;;;11.40;99.90;;;;;;5053586;28;20414;-68
2022/02/18 10:37:57;;;;;;;3.50;2.87;;;11.50;99.90;;;;;;5051374;28;20457;-67
2022/02/18 10:40:24;;;;;;;3.70;3.40;;;11.40;99.90;;;;;;5053372;28;20412;-67
2022/02/18 10:42:52;;;;;;;3.43;2.80;;;11.50;99.90;;;;;;5052479;28;20238;-66
2022/02/18 10:45:28;;;;;;;4.43;3.50;;;11.50;99.90;;;;;;5053763;28;20764;-67
2022/02/18 10:48:13;;;;;;;3.47;2.70;;;11.40;99.90;;;;;;5050623;28;20428;-67
2022/02/18 10:50:39;;;;;;;5.13;3.70;;;11.40;99.90;;;;;;5052659;28;20821;-67
2022/02/18 10:53:18;;;;;;;4.83;3.37;;;11.50;99.90;;;;;;5051893;28;20418;-71
2022/02/18 10:55:57;;;;;;;3.80;3.60;;;11.60;99.90;;;;;;5053412;28;20423;-66
2022/02/18 10:58:30;;;;;;;3.93;3.60;;;11.50;99.90;;;;;;5053549;28;20624;-70
2022/02/18 11:01:11;;;;;;;4.00;3.50;;;11.60;99.90;;;;;;5051589;28;20438;-67
2022/02/18 11:03:47;;;;;;;4.17;3.87;;;11.60;99.90;;;;;;5048432;28;20519;-66
2022/02/18 11:06:17;;;;;;;2.50;2.03;;;11.70;99.90;;;;;;5052907;28;20431;-65
2022/02/18 11:09:03;;;;;;;2.83;2.40;;;11.70;99.90;;;;;;5052615;28;20470;-68
2022/02/18 11:11:41;;;;;;;3.87;3.10;;;11.70;99.90;;;;;;5051813;28;20580;-66
2022/02/18 11:14:11;;;;;;;4.13;2.13;;;11.70;99.90;;;;;;5051490;28;20427;-65
2022/02/18 11:16:39;;;;;;;2.80;1.97;;;11.70;99.90;;;;;;5049557;28;20416;-65
2022/02/18 11:19:06;;;;;;;3.17;2.27;;;11.70;99.90;;;;;;5052340;28;20926;-69
2022/02/18 11:21:32;;;;;;;3.60;2.10;;;11.80;99.90;;;;;;5052596;28;20454;-66
2022/02/18 11:24:01;;;;;;;3.53;3.17;;;11.90;99.90;;;;;;5050449;28;20807;-67
2022/02/18 11:26:29;;;;;;;2.40;2.10;;;11.80;99.90;;;;;;5051068;28;20521;-67
2022/02/18 11:28:55;;;;;;;5.40;2.43;;;11.80;99.90;;;;;;5052076;28;20418;-66
2022/02/18 11:31:44;;;;;;;1.80;1.70;;;11.80;99.90;;;;;;5052299;28;20440;-66
2022/02/18 11:34:28;;;;;;;2.30;2.10;;;12.00;99.90;;;;;;5050352;28;20434;-66
2022/02/18 11:37:31;;;;;;;2.70;2.17;;;12.00;99.90;;;;;;5051566;28;20414;-67
2022/02/18 11:40:26;;;;;;;2.50;1.80;;;12.10;99.90;;;;;;5049038;28;20956;-66
2022/02/18 11:43:27;;;;;;;4.93;2.57;;;12.20;99.90;;;;;;5050553;28;20470;-67
2022/02/18 11:46:03;;;;;;;1.80;1.70;;;12.30;99.90;;;;;;5050266;28;20482;-67
2022/02/18 11:48:46;;;;;;;2.53;2.33;;;12.20;99.90;;;;;;5051842;28;20412;-66
2022/02/18 11:51:40;;;;;;;1.93;1.83;;;12.40;99.90;;;;;;5052072;28;20429;-66
2022/02/18 11:54:26;;;;;;;2.20;1.63;;;12.30;99.90;;;;;;5048149;28;20904;-66
2022/02/18 11:57:07;;;;;;;2.20;2.00;;;12.20;99.90;;;;;;5052109;28;20943;-66
2022/02/18 11:59:56;;;;;;;2.30;2.20;;;12.30;99.90;;;;;;5053036;28;20401;-66
2022/02/18 12:02:40;;;;;;;1.57;1.57;;;12.40;99.90;;;;;;5053381;28;20462;-66
2022/02/18 12:05:09;;;;;;;2.23;2.03;;;12.50;99.90;;;;;;5053281;28;20408;-66
2022/02/18 12:07:39;;;;;;;1.40;1.37;;;12.40;99.90;;;;;;5052175;28;20507;-68
2022/02/18 12:10:08;;;;;;;1.67;1.60;;;12.50;99.90;;;;;;5052606;28;20416;-69
2022/02/18 12:12:39;;;;;;;1.90;1.80;;;12.50;99.90;;;;;;5052736;28;20424;-66
2022/02/18 12:15:12;;;;;;;2.17;2.07;;;12.50;99.90;;;;;;5049217;28;20430;-66
2022/02/18 12:17:39;;;;;;;2.10;2.00;;;12.60;99.90;;;;;;5052284;28;20497;-68
2022/02/18 12:20:17;;;;;;;2.10;2.00;;;12.60;99.90;;;;;;5052249;28;20456;-66
2022/02/18 12:22:43;;;;;;;6.53;1.87;;;12.60;99.90;;;;;;5051687;28;20435;-67
2022/02/18 12:25:22;;;;;;;1.40;1.40;;;12.70;99.90;;;;;;5052061;28;20442;-66
2022/02/18 12:27:49;;;;;;;1.73;1.73;;;12.70;99.90;;;;;;5052276;28;20429;-67
2022/02/18 12:30:21;;;;;;;2.23;2.20;;;12.80;99.90;;;;;;5049096;28;21075;-71
2022/02/18 12:32:51;;;;;;;2.10;2.00;;;12.80;99.90;;;;;;5051031;28;20436;-66
2022/02/18 12:35:27;;;;;;;2.30;2.30;;;12.80;99.90;;;;;;5051564;28;20794;-66
2022/02/18 12:37:57;;;;;;;2.30;2.20;;;12.90;99.90;;;;;;5050830;28;20884;-66
2022/02/18 12:40:23;;;;;;;1.97;1.90;;;12.90;99.90;;;;;;5052535;28;20416;-69
2022/02/18 12:43:11;;;;;;;2.13;2.03;;;12.90;99.90;;;;;;5051828;28;20452;-67
2022/02/18 12:45:46;;;;;;;1.93;1.93;;;12.90;99.90;;;;;;5052050;28;20209;-79
2022/02/18 12:48:12;;;;;;;3.17;3.07;;;12.90;99.90;;;;;;5047937;28;20419;-67
2022/02/18 12:50:44;;;;;;;1.60;1.60;;;12.80;99.90;;;;;;5052099;28;20772;-67